Time;durP1;ratioP1;P1;durP2;ratioP2;P2;SDS_P1;SDS_P2;PMS_P1;PMS_P2;Temp;Humidity;BMP_temperature;BMP_pressure;BME280_temperature;BME280_humidity;BME280_pressure;Samples;Min_cycle;Max_cycle;Signal;HPM_P1;HPM_P2
2023/12/29 00:01:11;;;;;;;9.05;1.88;;;;;;;;;;4971395;28;20918;-68
2023/12/29 00:03:36;;;;;;;9.00;2.15;;;;;;;;;;4970086;28;20294;-69
2023/12/29 00:06:02;;;;;;;4.93;1.45;;;;;;;;;;4969571;28;20184;-68
2023/12/29 00:08:27;;;;;;;3.97;1.75;;;;;;;;;;4969783;28;20771;-67
2023/12/29 00:10:52;;;;;;;12.17;3.80;;;;;;;;;;4969931;28;20559;-67
2023/12/29 00:13:22;;;;;;;8.87;2.03;;;;;;;;;;4971350;28;20298;-67
2023/12/29 00:15:50;;;;;;;10.70;2.33;;;;;;;;;;4984862;28;20215;-67
2023/12/29 00:18:15;;;;;;;11.23;2.57;;;;;;;;;;4969200;28;20234;-68
2023/12/29 00:20:40;;;;;;;10.47;2.53;;;;;;;;;;4972639;28;20183;-68
2023/12/29 00:23:06;;;;;;;12.30;2.50;;;;;;;;;;4969953;28;20233;-69
2023/12/29 00:25:31;;;;;;;13.57;2.13;;;;;;;;;;4972697;28;20176;-68
2023/12/29 00:27:57;;;;;;;4.70;2.00;;;;;;;;;;4971557;28;20937;-69
2023/12/29 00:30:22;;;;;;;10.53;2.33;;;;;;;;;;4970565;28;20176;-68
2023/12/29 00:32:47;;;;;;;14.87;2.63;;;;;;;;;;4973291;28;20199;-69
2023/12/29 00:35:13;;;;;;;7.70;1.83;;;;;;;;;;4970866;28;20179;-68
2023/12/29 00:37:38;;;;;;;7.23;2.43;;;;;;;;;;4970166;28;20179;-69
2023/12/29 00:40:05;;;;;;;9.27;2.20;;;;;;;;;;4969575;28;20171;-68
2023/12/29 00:42:30;;;;;;;11.73;2.63;;;;;;;;;;4969438;28;20187;-69
2023/12/29 00:44:55;;;;;;;14.57;2.17;;;;;;;;;;4969360;28;20270;-67
2023/12/29 00:47:23;;;;;;;11.80;1.53;;;;;;;;;;4971153;28;20524;-68
2023/12/29 00:49:48;;;;;;;5.83;1.87;;;;;;;;;;4970983;28;20840;-69
2023/12/29 00:52:13;;;;;;;12.73;2.77;;;;;;;;;;4973920;28;20239;-68
2023/12/29 00:54:40;;;;;;;9.67;2.10;;;;;;;;;;4991464;28;20209;-67
2023/12/29 00:57:05;;;;;;;7.40;2.20;;;;;;;;;;4977533;28;20189;-69
2023/12/29 00:59:30;;;;;;;8.15;1.55;;;;;;;;;;4971455;28;20703;-69
2023/12/29 01:01:55;;;;;;;4.07;1.63;;;;;;;;;;4971552;28;20188;-68
2023/12/29 01:04:20;;;;;;;8.90;1.93;;;;;;;;;;4970419;28;20272;-67
2023/12/29 01:06:46;;;;;;;12.50;1.73;;;;;;;;;;4973228;28;20188;-69
2023/12/29 01:09:11;;;;;;;8.67;1.97;;;;;;;;;;4972790;28;20248;-68
2023/12/29 01:11:37;;;;;;;7.57;2.03;;;;;;;;;;4978689;28;20184;-68
2023/12/29 01:14:02;;;;;;;7.88;1.92;;;;;;;;;;4974416;28;20233;-68
2023/12/29 01:16:27;;;;;;;5.43;1.97;;;;;;;;;;4969956;28;20266;-69
2023/12/29 01:18:52;;;;;;;10.67;2.30;;;;;;;;;;4969234;28;20383;-68
2023/12/29 01:21:17;;;;;;;8.63;2.28;;;;;;;;;;4970091;28;20183;-67
2023/12/29 01:23:43;;;;;;;10.87;1.97;;;;;;;;;;4968144;28;20208;-68
2023/12/29 01:26:08;;;;;;;13.93;2.37;;;;;;;;;;4971592;28;20265;-68
2023/12/29 01:28:34;;;;;;;8.88;2.00;;;;;;;;;;4970718;28;20187;-68
2023/12/29 01:30:59;;;;;;;6.83;1.43;;;;;;;;;;4983639;28;20242;-67
2023/12/29 01:33:24;;;;;;;10.57;2.93;;;;;;;;;;4982475;28;20246;-68
2023/12/29 01:35:49;;;;;;;7.10;1.80;;;;;;;;;;4993679;28;20652;-68
2023/12/29 01:38:14;;;;;;;6.57;1.67;;;;;;;;;;4990762;28;20254;-68
2023/12/29 01:40:46;;;;;;;7.70;1.93;;;;;;;;;;4991591;28;20261;-68
2023/12/29 01:43:12;;;;;;;9.03;2.37;;;;;;;;;;4992068;28;20212;-69
2023/12/29 01:45:37;;;;;;;6.87;1.70;;;;;;;;;;4993501;28;20184;-69
2023/12/29 01:48:02;;;;;;;8.33;2.10;;;;;;;;;;4993860;28;20238;-69
2023/12/29 01:50:28;;;;;;;7.93;2.27;;;;;;;;;;4993611;28;20207;-69
2023/12/29 01:52:54;;;;;;;8.07;2.10;;;;;;;;;;4993570;28;20678;-68
2023/12/29 01:55:21;;;;;;;3.90;1.83;;;;;;;;;;4990197;28;20270;-69
2023/12/29 01:57:47;;;;;;;6.83;2.10;;;;;;;;;;4993755;28;20172;-68
2023/12/29 02:00:12;;;;;;;6.63;1.35;;;;;;;;;;4991384;28;20168;-68
2023/12/29 02:02:38;;;;;;;4.73;1.90;;;;;;;;;;4990190;28;20282;-69
2023/12/29 02:05:03;;;;;;;11.53;2.83;;;;;;;;;;4976991;28;22261;-69
2023/12/29 02:07:30;;;;;;;7.07;1.73;;;;;;;;;;4972862;28;20692;-68
2023/12/29 02:09:56;;;;;;;6.23;1.70;;;;;;;;;;4972456;28;20253;-68
2023/12/29 02:12:21;;;;;;;9.30;2.17;;;;;;;;;;4972667;28;20671;-69
2023/12/29 02:14:46;;;;;;;12.10;2.10;;;;;;;;;;4971925;28;20257;-68
2023/12/29 02:17:14;;;;;;;5.27;2.23;;;;;;;;;;4972528;28;20215;-67
2023/12/29 02:19:44;;;;;;;4.30;1.90;;;;;;;;;;4976259;28;20262;-69
2023/12/29 02:22:10;;;;;;;7.13;2.47;;;;;;;;;;4972731;28;20176;-66
2023/12/29 02:24:38;;;;;;;10.50;2.63;;;;;;;;;;4974906;28;20215;-68
2023/12/29 02:27:06;;;;;;;12.03;2.10;;;;;;;;;;4971238;28;20179;-66
2023/12/29 02:29:32;;;;;;;17.37;2.90;;;;;;;;;;4973149;28;20186;-69
2023/12/29 02:31:59;;;;;;;6.63;2.57;;;;;;;;;;4972415;28;20195;-69
2023/12/29 02:34:24;;;;;;;12.70;2.90;;;;;;;;;;4973942;28;20207;-68
2023/12/29 02:36:50;;;;;;;13.33;2.53;;;;;;;;;;4971848;28;20203;-68
2023/12/29 02:39:16;;;;;;;8.17;2.57;;;;;;;;;;4971549;28;20670;-68
2023/12/29 02:41:41;;;;;;;7.67;2.47;;;;;;;;;;4971531;28;20217;-68
2023/12/29 02:44:06;;;;;;;7.07;2.67;;;;;;;;;;4972370;28;20200;-68
2023/12/29 02:46:32;;;;;;;8.97;2.27;;;;;;;;;;4976350;28;20562;-69
2023/12/29 02:48:59;;;;;;;6.40;2.30;;;;;;;;;;4971485;28;20948;-68
2023/12/29 02:51:24;;;;;;;12.87;2.97;;;;;;;;;;4972018;28;20221;-69
2023/12/29 02:53:49;;;;;;;5.60;2.07;;;;;;;;;;4971992;28;20738;-68
2023/12/29 02:56:15;;;;;;;17.20;3.20;;;;;;;;;;4972716;28;20184;-68
2023/12/29 02:58:40;;;;;;;12.27;3.03;;;;;;;;;;4974317;28;20238;-70
2023/12/29 03:01:05;;;;;;;10.13;2.23;;;;;;;;;;4972541;28;20186;-67
2023/12/29 03:03:30;;;;;;;10.33;2.70;;;;;;;;;;4971645;28;20656;-68
2023/12/29 03:05:55;;;;;;;9.63;2.20;;;;;;;;;;4970536;28;21136;-67
2023/12/29 03:08:21;;;;;;;18.73;2.57;;;;;;;;;;4974642;28;20191;-68
2023/12/29 03:10:46;;;;;;;9.03;2.87;;;;;;;;;;4971043;28;20187;-68
2023/12/29 03:13:11;;;;;;;11.60;3.40;;;;;;;;;;4971714;28;20592;-68
2023/12/29 03:15:36;;;;;;;9.23;2.60;;;;;;;;;;4972431;28;20821;-68
2023/12/29 03:18:02;;;;;;;10.80;3.07;;;;;;;;;;4971451;28;20191;-67
2023/12/29 03:20:27;;;;;;;8.87;2.77;;;;;;;;;;4971101;28;20180;-68
2023/12/29 03:22:52;;;;;;;10.53;2.57;;;;;;;;;;4970885;28;21882;-68
2023/12/29 03:25:17;;;;;;;9.10;3.60;;;;;;;;;;4969178;28;20567;-67
2023/12/29 03:27:43;;;;;;;10.20;2.67;;;;;;;;;;4986551;28;20180;-68
2023/12/29 03:30:08;;;;;;;17.50;3.50;;;;;;;;;;4972366;28;20265;-68
2023/12/29 03:32:33;;;;;;;17.97;3.10;;;;;;;;;;4968451;28;20212;-68
2023/12/29 03:34:58;;;;;;;15.77;2.77;;;;;;;;;;4970253;28;20208;-68
2023/12/29 03:37:23;;;;;;;9.67;1.77;;;;;;;;;;4971549;28;20209;-68
2023/12/29 03:39:49;;;;;;;9.73;2.80;;;;;;;;;;4988880;28;20176;-69
2023/12/29 03:42:14;;;;;;;7.23;2.37;;;;;;;;;;4971794;28;20595;-69
2023/12/29 03:44:39;;;;;;;6.87;2.40;;;;;;;;;;4970949;28;20255;-70
2023/12/29 03:47:05;;;;;;;4.93;2.33;;;;;;;;;;4975304;28;20364;-69
2023/12/29 03:49:30;;;;;;;6.30;2.40;;;;;;;;;;4971987;28;20556;-70
2023/12/29 03:51:55;;;;;;;11.43;2.67;;;;;;;;;;4971184;28;20362;-68
2023/12/29 03:54:21;;;;;;;12.40;2.77;;;;;;;;;;4972936;28;20304;-68
2023/12/29 03:56:46;;;;;;;22.13;2.87;;;;;;;;;;4969122;28;20266;-69
2023/12/29 03:59:12;;;;;;;9.33;2.33;;;;;;;;;;4973838;28;20222;-67
2023/12/29 04:01:37;;;;;;;12.33;2.80;;;;;;;;;;4971586;28;20188;-68
2023/12/29 04:04:02;;;;;;;13.53;2.80;;;;;;;;;;4970478;28;20216;-68
2023/12/29 04:06:27;;;;;;;9.23;2.30;;;;;;;;;;4970159;28;20190;-68
2023/12/29 04:08:53;;;;;;;14.53;2.57;;;;;;;;;;4975827;28;20179;-68
2023/12/29 04:11:18;;;;;;;13.47;3.07;;;;;;;;;;4970760;28;20223;-69
2023/12/29 04:13:43;;;;;;;10.67;3.27;;;;;;;;;;4971028;28;20212;-68
2023/12/29 04:16:08;;;;;;;20.33;4.23;;;;;;;;;;4969665;28;20182;-68
2023/12/29 04:18:33;;;;;;;13.27;2.50;;;;;;;;;;4969748;28;20724;-69
2023/12/29 04:20:59;;;;;;;11.20;2.43;;;;;;;;;;4970664;28;20655;-68
2023/12/29 04:23:24;;;;;;;9.80;2.80;;;;;;;;;;4969330;28;20286;-69
2023/12/29 04:25:49;;;;;;;20.10;2.87;;;;;;;;;;4972808;28;20180;-68
2023/12/29 04:28:14;;;;;;;15.43;2.80;;;;;;;;;;4971127;28;20187;-69
2023/12/29 04:30:39;;;;;;;15.20;3.03;;;;;;;;;;4970591;28;20183;-68
2023/12/29 04:33:05;;;;;;;9.40;2.73;;;;;;;;;;4970797;28;22201;-69
2023/12/29 04:35:30;;;;;;;8.03;2.67;;;;;;;;;;4970272;28;20753;-68
2023/12/29 04:37:55;;;;;;;14.90;3.10;;;;;;;;;;4984340;28;20960;-70
2023/12/29 04:40:21;;;;;;;10.67;2.90;;;;;;;;;;4969130;28;20184;-70
2023/12/29 04:42:46;;;;;;;14.30;2.53;;;;;;;;;;4970350;28;20219;-69
2023/12/29 04:45:11;;;;;;;12.43;2.43;;;;;;;;;;4973732;28;20207;-70
2023/12/29 04:47:36;;;;;;;16.47;3.53;;;;;;;;;;4969483;28;20187;-69
2023/12/29 04:50:02;;;;;;;9.60;2.07;;;;;;;;;;4969677;28;20733;-68
2023/12/29 04:52:27;;;;;;;11.37;2.60;;;;;;;;;;4984581;28;20195;-69
2023/12/29 04:54:52;;;;;;;14.00;2.63;;;;;;;;;;4967904;28;20811;-69
2023/12/29 04:57:17;;;;;;;12.07;3.53;;;;;;;;;;4973283;28;20183;-69
2023/12/29 04:59:43;;;;;;;8.93;1.97;;;;;;;;;;4969914;28;20171;-69
2023/12/29 05:02:08;;;;;;;11.90;3.27;;;;;;;;;;4970600;28;20188;-70
2023/12/29 05:04:33;;;;;;;16.83;3.03;;;;;;;;;;4967528;28;20681;-69
2023/12/29 05:06:58;;;;;;;14.17;4.20;;;;;;;;;;4969174;28;20179;-69
2023/12/29 05:09:23;;;;;;;11.63;3.00;;;;;;;;;;4975453;28;20247;-69
2023/12/29 05:11:49;;;;;;;9.67;2.33;;;;;;;;;;4977119;28;20191;-69
2023/12/29 05:14:14;;;;;;;10.67;2.30;;;;;;;;;;4974009;28;20301;-69
2023/12/29 05:16:40;;;;;;;10.87;2.40;;;;;;;;;;4973463;28;20190;-69
2023/12/29 05:19:05;;;;;;;19.93;3.53;;;;;;;;;;4974382;28;20182;-69
2023/12/29 05:21:30;;;;;;;11.63;2.33;;;;;;;;;;4973528;28;20717;-69
2023/12/29 05:23:56;;;;;;;7.70;2.13;;;;;;;;;;4972787;28;20295;-67
2023/12/29 05:26:21;;;;;;;11.70;3.30;;;;;;;;;;4975149;28;20653;-69
2023/12/29 05:28:46;;;;;;;14.50;2.73;;;;;;;;;;4974396;28;20555;-68
2023/12/29 05:31:11;;;;;;;29.87;2.93;;;;;;;;;;4974903;28;20215;-69
2023/12/29 05:33:37;;;;;;;13.47;2.50;;;;;;;;;;4972558;28;20697;-69
2023/12/29 05:36:07;;;;;;;12.10;2.90;;;;;;;;;;4973315;28;21058;-68
2023/12/29 05:38:33;;;;;;;8.67;2.63;;;;;;;;;;4973251;28;20184;-68
2023/12/29 05:40:58;;;;;;;13.93;2.13;;;;;;;;;;4973525;28;20180;-68
2023/12/29 05:43:23;;;;;;;13.23;2.93;;;;;;;;;;4974277;28;20311;-68
2023/12/29 05:45:48;;;;;;;12.53;2.53;;;;;;;;;;4992514;28;20180;-69
2023/12/29 05:48:13;;;;;;;8.77;2.77;;;;;;;;;;4985172;28;20180;-69
2023/12/29 05:50:39;;;;;;;15.20;2.60;;;;;;;;;;4983825;28;20609;-69
2023/12/29 05:53:05;;;;;;;6.43;1.70;;;;;;;;;;4973267;28;20360;-69
2023/12/29 05:55:30;;;;;;;15.07;2.43;;;;;;;;;;4972013;28;20322;-68
2023/12/29 05:57:56;;;;;;;7.23;2.20;;;;;;;;;;4976293;28;20418;-69
2023/12/29 06:00:21;;;;;;;6.37;2.73;;;;;;;;;;4973559;28;20182;-69
2023/12/29 06:02:46;;;;;;;11.73;2.77;;;;;;;;;;4974477;28;20947;-68
2023/12/29 06:05:12;;;;;;;12.53;3.13;;;;;;;;;;4974394;28;20671;-69
2023/12/29 06:07:37;;;;;;;8.93;2.30;;;;;;;;;;4986259;28;20642;-67
2023/12/29 06:10:03;;;;;;;16.23;3.00;;;;;;;;;;4973269;28;20556;-68
2023/12/29 06:12:28;;;;;;;11.60;3.17;;;;;;;;;;4972145;28;20283;-69
2023/12/29 06:14:53;;;;;;;12.03;2.07;;;;;;;;;;4972715;28;20196;-68
2023/12/29 06:17:18;;;;;;;10.33;2.57;;;;;;;;;;4972013;28;20245;-69
2023/12/29 06:19:44;;;;;;;11.07;2.77;;;;;;;;;;4972173;28;20194;-69
2023/12/29 06:22:11;;;;;;;9.00;2.80;;;;;;;;;;4972341;28;20215;-67
2023/12/29 06:24:37;;;;;;;6.80;2.30;;;;;;;;;;4971814;28;20238;-68
2023/12/29 06:27:02;;;;;;;11.90;2.40;;;;;;;;;;4976865;28;20955;-69
2023/12/29 06:29:27;;;;;;;9.50;3.27;;;;;;;;;;4985667;28;20188;-70
2023/12/29 06:31:53;;;;;;;12.60;2.30;;;;;;;;;;4973041;28;20668;-69
2023/12/29 06:34:18;;;;;;;11.13;3.20;;;;;;;;;;4973635;28;20203;-68
2023/12/29 06:36:43;;;;;;;12.73;3.47;;;;;;;;;;4971732;28;20184;-69
2023/12/29 06:39:08;;;;;;;7.03;2.53;;;;;;;;;;4972275;28;20893;-68
2023/12/29 06:41:34;;;;;;;11.77;2.83;;;;;;;;;;4972054;28;21183;-68
2023/12/29 06:43:59;;;;;;;9.93;2.80;;;;;;;;;;4971671;28;20305;-70
2023/12/29 06:46:24;;;;;;;5.67;2.73;;;;;;;;;;4972775;28;20212;-69
2023/12/29 06:48:49;;;;;;;7.77;2.43;;;;;;;;;;4971331;28;20238;-69
2023/12/29 06:51:18;;;;;;;8.73;2.30;;;;;;;;;;4986158;28;20705;-70
2023/12/29 06:53:44;;;;;;;5.40;1.73;;;;;;;;;;4971550;28;20226;-68
2023/12/29 06:56:12;;;;;;;7.20;2.43;;;;;;;;;;4986527;28;20187;-69
2023/12/29 06:58:37;;;;;;;6.97;1.93;;;;;;;;;;4974259;28;20211;-67
2023/12/29 07:01:03;;;;;;;13.37;3.57;;;;;;;;;;4974109;28;20648;-68
2023/12/29 07:03:28;;;;;;;11.50;2.40;;;;;;;;;;4971145;28;20940;-67
2023/12/29 07:05:53;;;;;;;11.20;3.17;;;;;;;;;;4972571;28;20617;-67
2023/12/29 07:08:18;;;;;;;9.07;2.30;;;;;;;;;;4972079;28;20270;-68
2023/12/29 07:10:44;;;;;;;7.67;3.03;;;;;;;;;;4972659;28;20216;-67
2023/12/29 07:13:09;;;;;;;7.07;2.43;;;;;;;;;;4971561;28;20284;-68
2023/12/29 07:15:34;;;;;;;5.23;2.27;;;;;;;;;;4970856;28;20187;-69
2023/12/29 07:18:00;;;;;;;3.07;2.37;;;;;;;;;;4971065;28;20190;-68
2023/12/29 07:20:25;;;;;;;4.13;2.97;;;;;;;;;;4972087;28;20176;-69
2023/12/29 07:22:50;;;;;;;10.57;2.13;;;;;;;;;;4970650;28;20227;-69
2023/12/29 07:25:15;;;;;;;7.03;2.60;;;;;;;;;;4970429;28;20258;-69
2023/12/29 07:27:40;;;;;;;5.90;2.37;;;;;;;;;;4977197;28;20219;-69
2023/12/29 07:30:07;;;;;;;12.93;2.60;;;;;;;;;;4971612;28;20690;-70
2023/12/29 07:32:32;;;;;;;5.50;2.90;;;;;;;;;;4969597;28;20667;-67
2023/12/29 07:34:58;;;;;;;9.20;3.40;;;;;;;;;;4972378;28;20211;-68
2023/12/29 07:37:23;;;;;;;7.37;2.73;;;;;;;;;;4970642;28;20199;-67
2023/12/29 07:39:48;;;;;;;8.90;2.83;;;;;;;;;;4972475;28;20192;-69
2023/12/29 07:42:16;;;;;;;8.97;2.53;;;;;;;;;;4975323;28;20635;-68
2023/12/29 07:44:41;;;;;;;15.03;3.80;;;;;;;;;;4970668;28;20211;-68
2023/12/29 07:47:06;;;;;;;5.93;3.30;;;;;;;;;;4977401;28;20639;-68
2023/12/29 07:49:32;;;;;;;6.33;2.93;;;;;;;;;;4971021;28;20570;-67
2023/12/29 07:51:59;;;;;;;6.73;3.20;;;;;;;;;;4971836;28;20886;-70
2023/12/29 07:54:24;;;;;;;6.30;2.27;;;;;;;;;;4969105;28;20211;-69
2023/12/29 07:56:50;;;;;;;5.67;2.40;;;;;;;;;;4972366;28;21002;-68
2023/12/29 07:59:15;;;;;;;7.47;2.77;;;;;;;;;;4970597;28;20191;-67
2023/12/29 08:01:41;;;;;;;7.40;2.77;;;;;;;;;;4975627;28;20211;-69
2023/12/29 08:04:06;;;;;;;4.43;2.10;;;;;;;;;;4970350;28;20238;-67
2023/12/29 08:06:32;;;;;;;10.57;2.90;;;;;;;;;;4971576;28;20675;-68
2023/12/29 08:08:57;;;;;;;7.80;2.80;;;;;;;;;;4970556;28;20176;-68
2023/12/29 08:11:22;;;;;;;7.67;2.63;;;;;;;;;;4972190;28;20312;-67
2023/12/29 08:13:48;;;;;;;9.87;3.20;;;;;;;;;;4969287;28;20222;-68
2023/12/29 08:16:13;;;;;;;5.40;3.43;;;;;;;;;;4970465;28;20191;-68
2023/12/29 08:18:39;;;;;;;7.83;3.97;;;;;;;;;;4970429;28;21691;-68
2023/12/29 08:21:04;;;;;;;4.57;2.60;;;;;;;;;;4970260;28;20267;-68
2023/12/29 08:23:29;;;;;;;6.43;3.00;;;;;;;;;;4973550;28;20208;-69
2023/12/29 08:25:56;;;;;;;9.57;3.00;;;;;;;;;;4970552;28;20189;-70
2023/12/29 08:28:21;;;;;;;11.63;3.33;;;;;;;;;;4973516;28;20184;-68
2023/12/29 08:30:46;;;;;;;5.80;2.17;;;;;;;;;;4970726;28;20586;-68
2023/12/29 08:33:13;;;;;;;6.67;2.03;;;;;;;;;;4969725;28;20212;-68
2023/12/29 08:35:39;;;;;;;6.53;2.03;;;;;;;;;;4969067;28;20199;-67
2023/12/29 08:38:04;;;;;;;6.90;2.20;;;;;;;;;;4970466;28;20176;-68
2023/12/29 08:40:29;;;;;;;4.23;2.10;;;;;;;;;;4969810;28;20237;-67
2023/12/29 08:42:55;;;;;;;7.30;2.53;;;;;;;;;;4969054;28;20184;-68
2023/12/29 08:45:20;;;;;;;4.57;2.67;;;;;;;;;;4974499;28;20183;-68
2023/12/29 08:47:45;;;;;;;5.73;1.90;;;;;;;;;;4969588;28;20191;-68
2023/12/29 08:50:10;;;;;;;5.93;2.27;;;;;;;;;;4970678;28;20728;-68
2023/12/29 08:52:36;;;;;;;5.33;2.37;;;;;;;;;;4968633;28;20243;-68
2023/12/29 08:55:01;;;;;;;6.97;2.00;;;;;;;;;;4969546;28;20219;-67
2023/12/29 08:57:26;;;;;;;6.53;2.00;;;;;;;;;;4973112;28;20667;-68
2023/12/29 08:59:51;;;;;;;3.10;1.83;;;;;;;;;;4970342;28;20188;-69
2023/12/29 09:02:17;;;;;;;3.33;1.63;;;;;;;;;;4969189;28;20175;-68
2023/12/29 09:04:42;;;;;;;2.47;1.70;;;;;;;;;;4969587;28;20369;-69
2023/12/29 09:07:07;;;;;;;5.87;1.70;;;;;;;;;;4970326;28;20199;-69
2023/12/29 09:09:32;;;;;;;3.47;1.63;;;;;;;;;;4969967;28;20180;-68
2023/12/29 09:11:57;;;;;;;6.40;1.67;;;;;;;;;;4970793;28;20188;-68
2023/12/29 09:14:22;;;;;;;7.90;1.60;;;;;;;;;;4969979;28;20641;-69
2023/12/29 09:16:48;;;;;;;5.47;1.90;;;;;;;;;;4969525;28;20195;-69
2023/12/29 09:19:13;;;;;;;4.27;1.40;;;;;;;;;;4970976;28;20266;-69
2023/12/29 09:21:38;;;;;;;4.63;1.50;;;;;;;;;;4969983;28;20212;-69
2023/12/29 09:24:04;;;;;;;5.03;2.28;;;;;;;;;;4969946;28;20590;-70
2023/12/29 09:26:29;;;;;;;6.47;2.05;;;;;;;;;;4972490;28;20271;-69
2023/12/29 09:28:55;;;;;;;6.70;2.05;;;;;;;;;;4978461;28;20183;-69
2023/12/29 09:31:20;;;;;;;7.83;1.73;;;;;;;;;;4969479;28;20184;-69
2023/12/29 09:33:45;;;;;;;4.18;1.35;;;;;;;;;;4970054;28;20823;-70
2023/12/29 09:36:10;;;;;;;7.37;1.53;;;;;;;;;;4988220;28;20186;-70
2023/12/29 09:38:35;;;;;;;5.18;1.52;;;;;;;;;;4997204;28;20176;-70
2023/12/29 09:41:04;;;;;;;4.78;1.63;;;;;;;;;;4989698;28;20171;-69
2023/12/29 09:43:32;;;;;;;3.58;1.10;;;;;;;;;;4987215;28;20679;-69
2023/12/29 09:45:58;;;;;;;5.90;1.63;;;;;;;;;;4974534;28;20184;-68
2023/12/29 09:48:26;;;;;;;3.60;1.50;;;;;;;;;;4968947;28;20194;-69
2023/12/29 09:50:52;;;;;;;3.85;1.15;;;;;;;;;;4969418;28;20190;-69
2023/12/29 09:53:18;;;;;;;2.60;1.27;;;;;;;;;;4969480;28;20215;-71
2023/12/29 09:55:46;;;;;;;3.33;1.30;;;;;;;;;;4971127;28;20271;-69
2023/12/29 09:58:12;;;;;;;8.20;1.48;;;;;;;;;;4973860;28;20179;-68
2023/12/29 10:00:38;;;;;;;7.20;1.73;;;;;;;;;;4972729;28;20270;-69
2023/12/29 10:03:04;;;;;;;6.07;1.80;;;;;;;;;;4972236;28;20673;-69
2023/12/29 10:05:29;;;;;;;7.18;1.55;;;;;;;;;;4974153;28;20191;-69
2023/12/29 10:07:56;;;;;;;2.13;1.10;;;;;;;;;;4971317;28;20194;-69
2023/12/29 10:10:24;;;;;;;3.75;1.42;;;;;;;;;;4971818;28;20203;-67
2023/12/29 10:12:49;;;;;;;2.60;1.17;;;;;;;;;;4973319;28;20683;-67
2023/12/29 10:15:14;;;;;;;3.22;1.45;;;;;;;;;;4987390;28;20306;-68
2023/12/29 10:17:40;;;;;;;5.32;2.08;;;;;;;;;;4971816;28;20183;-69
2023/12/29 10:20:15;;;;;;;4.38;1.63;;;;;;;;;;4968762;28;20286;-67
2023/12/29 10:22:59;;;;;;;2.05;1.20;;;;;;;;;;4967287;28;20179;-69
2023/12/29 10:25:24;;;;;;;4.95;1.70;;;;;;;;;;4969438;28;20187;-69
2023/12/29 10:27:50;;;;;;;3.80;1.50;;;;;;;;;;4971592;28;20218;-70
2023/12/29 10:30:15;;;;;;;2.22;1.13;;;;;;;;;;4972071;28;21259;-70
2023/12/29 10:32:40;;;;;;;5.70;2.10;;;;;;;;;;4972115;28;20214;-70
2023/12/29 10:35:10;;;;;;;5.55;1.30;;;;;;;;;;4973593;28;20201;-70
2023/12/29 10:37:35;;;;;;;8.57;1.83;;;;;;;;;;4970657;28;20695;-70
2023/12/29 10:40:00;;;;;;;3.17;1.52;;;;;;;;;;4972884;28;20188;-69
2023/12/29 10:42:26;;;;;;;3.80;1.20;;;;;;;;;;4980073;28;20176;-70
2023/12/29 10:45:04;;;;;;;6.70;1.60;;;;;;;;;;4992615;28;20794;-71
2023/12/29 10:47:29;;;;;;;3.08;0.77;;;;;;;;;;4990049;28;20199;-70
2023/12/29 10:49:58;;;;;;;8.23;1.35;;;;;;;;;;4990273;28;20180;-70
2023/12/29 10:52:23;;;;;;;5.18;1.30;;;;;;;;;;4990789;28;20195;-70
2023/12/29 10:54:49;;;;;;;8.27;2.08;;;;;;;;;;4992197;28;20597;-69
2023/12/29 10:57:14;;;;;;;5.28;1.90;;;;;;;;;;4986279;28;20176;-68
2023/12/29 10:59:39;;;;;;;3.50;1.27;;;;;;;;;;4975046;28;20199;-69
2023/12/29 11:02:05;;;;;;;3.00;1.40;;;;;;;;;;4972399;28;20176;-69
2023/12/29 11:04:30;;;;;;;5.25;1.20;;;;;;;;;;4970877;28;20203;-70
2023/12/29 11:06:55;;;;;;;8.48;1.17;;;;;;;;;;4968743;28;20207;-70
2023/12/29 11:09:28;;;;;;;6.75;1.98;;;;;;;;;;4971555;28;20195;-69
2023/12/29 11:11:53;;;;;;;8.90;2.00;;;;;;;;;;4974381;28;20196;-70
2023/12/29 11:14:20;;;;;;;7.20;1.33;;;;;;;;;;4971241;28;20226;-68
2023/12/29 11:16:45;;;;;;;7.50;1.83;;;;;;;;;;4973850;28;20281;-70
2023/12/29 11:19:12;;;;;;;10.05;1.77;;;;;;;;;;4971928;28;20556;-70
2023/12/29 11:21:38;;;;;;;9.05;1.92;;;;;;;;;;4972965;28;20188;-68
2023/12/29 11:24:04;;;;;;;3.38;1.45;;;;;;;;;;4975156;28;20203;-69
2023/12/29 11:26:30;;;;;;;7.00;1.45;;;;;;;;;;4974995;28;20206;-68
2023/12/29 11:28:55;;;;;;;8.95;1.45;;;;;;;;;;4972529;28;20179;-69
2023/12/29 11:31:21;;;;;;;6.65;1.35;;;;;;;;;;4971717;28;20759;-69
2023/12/29 11:33:50;;;;;;;8.63;1.55;;;;;;;;;;4969852;28;21028;-70
2023/12/29 11:36:17;;;;;;;7.10;1.80;;;;;;;;;;4971996;28;20186;-70
2023/12/29 11:39:01;;;;;;;6.68;1.70;;;;;;;;;;4972057;28;20682;-71
2023/12/29 11:41:41;;;;;;;5.72;1.55;;;;;;;;;;4975650;28;20561;-69
2023/12/29 11:44:06;;;;;;;4.40;1.60;;;;;;;;;;4967164;28;20761;-71
2023/12/29 11:46:37;;;;;;;12.95;2.20;;;;;;;;;;4975566;28;20184;-70
2023/12/29 11:49:03;;;;;;;9.30;1.40;;;;;;;;;;4966596;28;20674;-69
2023/12/29 11:51:29;;;;;;;12.68;1.60;;;;;;;;;;4969780;28;20647;-69
2023/12/29 11:53:55;;;;;;;7.90;1.70;;;;;;;;;;4968942;28;20721;-70
2023/12/29 11:56:20;;;;;;;5.97;1.73;;;;;;;;;;4971671;28;20200;-67
2023/12/29 11:58:46;;;;;;;8.00;2.65;;;;;;;;;;4969495;28;20176;-68
2023/12/29 12:01:11;;;;;;;7.55;1.55;;;;;;;;;;4972658;28;20186;-70
2023/12/29 12:03:36;;;;;;;7.72;1.83;;;;;;;;;;4969314;28;20682;-69
2023/12/29 12:06:03;;;;;;;7.10;1.65;;;;;;;;;;4970597;28;20184;-71
2023/12/29 12:08:28;;;;;;;7.65;2.63;;;;;;;;;;4969956;28;20244;-71
2023/12/29 12:10:53;;;;;;;8.57;1.63;;;;;;;;;;4969952;28;20846;-69
2023/12/29 12:13:37;;;;;;;11.23;2.53;;;;;;;;;;4970023;28;20211;-69
2023/12/29 12:16:03;;;;;;;5.80;1.90;;;;;;;;;;4969457;28;20254;-70
2023/12/29 12:18:28;;;;;;;10.35;2.10;;;;;;;;;;4970160;28;20189;-69
2023/12/29 12:20:53;;;;;;;6.95;1.83;;;;;;;;;;4972098;28;20570;-68
2023/12/29 12:23:19;;;;;;;10.23;2.35;;;;;;;;;;4969926;28;20207;-68
2023/12/29 12:25:45;;;;;;;10.25;1.83;;;;;;;;;;4970438;28;20683;-68
2023/12/29 12:28:13;;;;;;;9.43;2.10;;;;;;;;;;4972506;28;20194;-68
2023/12/29 12:30:38;;;;;;;12.65;1.90;;;;;;;;;;4985555;28;20180;-68
2023/12/29 12:33:04;;;;;;;12.02;2.15;;;;;;;;;;4970077;28;20215;-69
2023/12/29 12:35:30;;;;;;;15.07;2.97;;;;;;;;;;4974073;28;20179;-69
2023/12/29 12:38:08;;;;;;;18.08;2.67;;;;;;;;;;4969601;28;20183;-69
2023/12/29 12:40:33;;;;;;;10.15;2.05;;;;;;;;;;4970202;28;20266;-69
2023/12/29 12:42:58;;;;;;;11.07;2.33;;;;;;;;;;4969599;28;20487;-69
2023/12/29 12:45:25;;;;;;;6.03;1.98;;;;;;;;;;4970093;28;20179;-69
2023/12/29 12:47:52;;;;;;;9.15;2.08;;;;;;;;;;4969839;28;20188;-68
2023/12/29 12:50:17;;;;;;;13.95;3.00;;;;;;;;;;4969742;28;20183;-69
2023/12/29 12:52:43;;;;;;;13.25;1.92;;;;;;;;;;4973627;28;20195;-68
2023/12/29 12:55:09;;;;;;;9.55;1.88;;;;;;;;;;4971588;28;20211;-72
2023/12/29 12:57:35;;;;;;;7.82;2.75;;;;;;;;;;4973812;28;20211;-72
2023/12/29 13:00:01;;;;;;;16.83;3.60;;;;;;;;;;4971899;28;20388;-73
2023/12/29 13:02:27;;;;;;;6.25;2.03;;;;;;;;;;4970103;28;20175;-72
2023/12/29 13:04:53;;;;;;;12.93;1.90;;;;;;;;;;4963933;28;20221;-72
2023/12/29 13:07:19;;;;;;;13.30;2.22;;;;;;;;;;4969276;28;20230;-73
2023/12/29 13:09:48;;;;;;;11.65;2.72;;;;;;;;;;4969986;28;20702;-72
2023/12/29 13:12:14;;;;;;;10.85;3.35;;;;;;;;;;4968611;28;20183;-71
2023/12/29 13:14:39;;;;;;;8.45;2.35;;;;;;;;;;4981856;28;20265;-72
2023/12/29 13:17:10;;;;;;;7.88;2.53;;;;;;;;;;4974624;28;20261;-71
2023/12/29 13:19:36;;;;;;;7.88;2.38;;;;;;;;;;4971132;28;20234;-72
2023/12/29 13:22:03;;;;;;;13.02;2.67;;;;;;;;;;4976802;28;20195;-70
2023/12/29 13:24:29;;;;;;;10.30;2.05;;;;;;;;;;4972281;28;20572;-72
2023/12/29 13:27:01;;;;;;;20.05;2.95;;;;;;;;;;4972893;28;20271;-72
2023/12/29 13:29:29;;;;;;;8.90;2.20;;;;;;;;;;4981708;28;20183;-70
2023/12/29 13:31:55;;;;;;;10.75;1.83;;;;;;;;;;4975271;28;20278;-72
2023/12/29 13:34:22;;;;;;;10.20;1.77;;;;;;;;;;4966576;28;20226;-72
2023/12/29 13:36:52;;;;;;;11.40;2.92;;;;;;;;;;4974869;28;20892;-71
2023/12/29 13:39:20;;;;;;;11.57;2.35;;;;;;;;;;4972965;28;20187;-74
2023/12/29 13:41:45;;;;;;;15.95;4.22;;;;;;;;;;4972479;28;20188;-74
2023/12/29 13:44:11;;;;;;;9.27;2.08;;;;;;;;;;4970612;28;20199;-73
2023/12/29 13:46:36;;;;;;;12.15;2.67;;;;;;;;;;4979940;28;20181;-72
2023/12/29 13:49:02;;;;;;;13.38;3.33;;;;;;;;;;4972949;28;20730;-73
2023/12/29 13:51:27;;;;;;;13.35;2.70;;;;;;;;;;4971820;28;20203;-73
2023/12/29 13:53:59;;;;;;;15.20;3.42;;;;;;;;;;4972055;28;20265;-70
2023/12/29 13:56:25;;;;;;;8.50;2.00;;;;;;;;;;4976436;28;20748;-71
2023/12/29 13:58:53;;;;;;;20.45;3.38;;;;;;;;;;4972973;28;20180;-71
2023/12/29 14:01:18;;;;;;;9.90;2.30;;;;;;;;;;4972780;28;20606;-75
2023/12/29 14:03:47;;;;;;;20.27;3.25;;;;;;;;;;4975126;28;20286;-70
2023/12/29 14:06:18;;;;;;;17.30;2.40;;;;;;;;;;4974082;28;20268;-71
2023/12/29 14:08:46;;;;;;;21.40;2.47;;;;;;;;;;4975534;28;20738;-72
2023/12/29 14:11:12;;;;;;;11.18;2.85;;;;;;;;;;4970848;28;20242;-73
2023/12/29 14:13:49;;;;;;;9.85;2.30;;;;;;;;;;4973372;28;20640;-72
2023/12/29 14:16:15;;;;;;;7.07;1.92;;;;;;;;;;4972321;28;20171;-73
2023/12/29 14:18:45;;;;;;;12.93;2.38;;;;;;;;;;4957596;28;20781;-72
2023/12/29 14:21:28;;;;;;;12.45;2.83;;;;;;;;;;4970363;28;20668;-71
2023/12/29 14:24:00;;;;;;;13.13;3.95;;;;;;;;;;4971324;28;20212;-73
2023/12/29 14:26:25;;;;;;;14.10;2.47;;;;;;;;;;4983498;28;20180;-72
2023/12/29 14:29:00;;;;;;;10.88;2.63;;;;;;;;;;4977626;28;20254;-72
2023/12/29 14:31:25;;;;;;;14.50;4.78;;;;;;;;;;4974377;28;20189;-72